Главная страница
METAR-TAF:

METAR-TAF

Аэропорты :

Международный аэропорт имени Ибрагима Насира

Мале, Мальдивы

широта: 04-12N, долгота: 073-32E, высота над уровнем моря: 2 м

Текущие метеонаблюдения

Эта сводка был подготовлена 1 час и 27 минут назад, в 05:00 UTC
Ветер 10 Узел от западный
Температура 30°C
Влажность 70%
Давление 1012 hPa
Видимость 10 км и более
Отдельные облака на высоте 1800 фута, мощно-кучевые.
Рассеянная облачность на высоте 27000 фута

METAR: VRMM 130500Z 27010KT 9999 SCT018TCU BKN270 30/24 Q1012 NOSIG

Время: 11:27 (06:27 UTC)

Прогноз

Эта сводка был подготовлена 1 час и 27 минут назад, в 05:00 UTC
Прогноз действительный с 13-го 06 UTC до 14-го 12 UTC
Ветер 10 Узел от западный-юго-западный
Видимость 10 км и более
небольшая облачность на высоте 1800 фута
временами
С 13-го 06 UTC до 13-го 12 UTC
небольшая облачность на высоте 1800 фута, Кучево-дождевые.

TAF: VRMM 130500Z 1306/1412 25010KT 9999 FEW018 TEMPO 1306/1312 FEW018CB

Метеонаблюдения и прогнозы для более 4000 аэропортов (сводки METAR и TAF).

Имеющиеся станции представлены на карте желтыми и красными точками.

Чтобы увидеть название станции, наведите на нее мышь.

Затем щелкните, чтобы увидеть метеонаблюдения и метеопрогнозы.

Управление картой: чтобы увеличить масштаб, щелкните зеленые кнопки с черным крестиком; чтобы уменьшить масштаб, щелкните зеленую кнопку с тире; для просмотра соседних карт щелкайте зеленые стрелки.


METAR-TAF: